sensor_id;sensor_type;location;lat;lon;timestamp;pressure;altitude;pressure_sealevel;temperature;humidity
7109;BME280;29079;41.930;25.558;2023-04-10T00:00:37;99760.44;;;9.61;67.11
7109;BME280;29079;41.930;25.558;2023-04-10T00:03:12;99762.16;;;8.71;69.32
7109;BME280;29079;41.930;25.558;2023-04-10T00:05:47;99758.41;;;9.19;73.20
7109;BME280;29079;41.930;25.558;2023-04-10T00:08:20;99765.28;;;8.65;68.74
7109;BME280;29079;41.930;25.558;2023-04-10T00:10:53;99762.50;;;9.57;73.91
7109;BME280;29079;41.930;25.558;2023-04-10T00:13:29;99766.66;;;9.27;67.22
7109;BME280;29079;41.930;25.558;2023-04-10T00:16:03;99753.69;;;8.30;72.79
7109;BME280;29079;41.930;25.558;2023-04-10T00:18:36;99760.28;;;8.49;71.43
7109;BME280;29079;41.930;25.558;2023-04-10T00:21:11;99760.69;;;8.31;70.17
7109;BME280;29079;41.930;25.558;2023-04-10T00:23:43;99759.66;;;7.61;72.05
7109;BME280;29079;41.930;25.558;2023-04-10T00:26:16;99760.66;;;7.47;72.20
7109;BME280;29079;41.930;25.558;2023-04-10T00:28:51;99751.88;;;7.71;74.73
7109;BME280;29079;41.930;25.558;2023-04-10T00:31:24;99759.13;;;7.56;71.71
7109;BME280;29079;41.930;25.558;2023-04-10T00:33:57;99755.88;;;7.77;73.78
7109;BME280;29079;41.930;25.558;2023-04-10T00:36:32;99749.22;;;7.71;73.15
7109;BME280;29079;41.930;25.558;2023-04-10T00:39:05;99750.38;;;7.91;71.40
7109;BME280;29079;41.930;25.558;2023-04-10T00:41:39;99739.91;;;7.65;73.42
7109;BME280;29079;41.930;25.558;2023-04-10T00:44:12;99746.44;;;7.48;73.16
7109;BME280;29079;41.930;25.558;2023-04-10T00:46:45;99735.59;;;7.52;72.70
7109;BME280;29079;41.930;25.558;2023-04-10T00:49:18;99740.09;;;7.38;72.68
7109;BME280;29079;41.930;25.558;2023-04-10T00:51:54;99739.75;;;7.06;74.23
7109;BME280;29079;41.930;25.558;2023-04-10T00:54:29;99733.91;;;7.01;73.89
7109;BME280;29079;41.930;25.558;2023-04-10T00:57:03;99724.81;;;7.29;73.82
7109;BME280;29079;41.930;25.558;2023-04-10T00:59:36;99728.81;;;7.35;74.89
7109;BME280;29079;41.930;25.558;2023-04-10T01:02:09;99721.81;;;6.96;74.59
7109;BME280;29079;41.930;25.558;2023-04-10T01:04:44;99724.28;;;6.74;76.13
7109;BME280;29079;41.930;25.558;2023-04-10T01:07:20;99723.84;;;6.93;74.59
7109;BME280;29079;41.930;25.558;2023-04-10T01:09:58;99720.09;;;7.45;75.69
7109;BME280;29079;41.930;25.558;2023-04-10T01:12:42;99719.47;;;8.26;75.19
7109;BME280;29079;41.930;25.558;2023-04-10T01:15:19;99723.66;;;7.57;75.26
7109;BME280;29079;41.930;25.558;2023-04-10T01:17:54;99716.59;;;7.69;71.85
7109;BME280;29079;41.930;25.558;2023-04-10T01:20:29;99721.38;;;7.03;74.98
7109;BME280;29079;41.930;25.558;2023-04-10T01:23:20;99718.78;;;7.14;77.32
7109;BME280;29079;41.930;25.558;2023-04-10T01:25:57;99725.47;;;7.20;73.17
7109;BME280;29079;41.930;25.558;2023-04-10T01:31:29;99722.38;;;6.63;75.27
7109;BME280;29079;41.930;25.558;2023-04-10T01:34:04;99721.94;;;6.82;75.04
7109;BME280;29079;41.930;25.558;2023-04-10T01:36:41;99726.16;;;6.46;80.52
7109;BME280;29079;41.930;25.558;2023-04-10T01:39:19;99723.41;;;6.60;75.53
7109;BME280;29079;41.930;25.558;2023-04-10T01:41:52;99718.53;;;6.28;77.43
7109;BME280;29079;41.930;25.558;2023-04-10T01:44:28;99717.50;;;6.83;76.87
7109;BME280;29079;41.930;25.558;2023-04-10T01:47:03;99714.41;;;6.63;76.17
7109;BME280;29079;41.930;25.558;2023-04-10T01:49:39;99714.84;;;6.70;76.66
7109;BME280;29079;41.930;25.558;2023-04-10T01:52:15;99711.75;;;6.63;75.45
7109;BME280;29079;41.930;25.558;2023-04-10T01:54:49;99721.41;;;6.51;75.74
7109;BME280;29079;41.930;25.558;2023-04-10T01:57:23;99716.91;;;6.00;76.50
7109;BME280;29079;41.930;25.558;2023-04-10T01:59:56;99717.41;;;6.05;78.71
7109;BME280;29079;41.930;25.558;2023-04-10T02:02:31;99716.94;;;5.86;77.46
7109;BME280;29079;41.930;25.558;2023-04-10T02:05:05;99708.31;;;6.09;77.28
7109;BME280;29079;41.930;25.558;2023-04-10T02:07:39;99714.63;;;5.94;78.37
7109;BME280;29079;41.930;25.558;2023-04-10T02:10:18;99713.75;;;5.93;76.95
7109;BME280;29079;41.930;25.558;2023-04-10T02:13:05;99712.44;;;5.73;78.08
7109;BME280;29079;41.930;25.558;2023-04-10T02:15:40;99720.31;;;5.88;78.97
7109;BME280;29079;41.930;25.558;2023-04-10T02:18:15;99716.72;;;6.55;82.12
7109;BME280;29079;41.930;25.558;2023-04-10T02:20:49;99712.91;;;6.72;75.46
7109;BME280;29079;41.930;25.558;2023-04-10T02:23:23;99711.94;;;6.08;79.18
7109;BME280;29079;41.930;25.558;2023-04-10T02:25:57;99706.03;;;6.43;75.71
7109;BME280;29079;41.930;25.558;2023-04-10T02:28:30;99708.09;;;6.13;76.10
7109;BME280;29079;41.930;25.558;2023-04-10T02:31:03;99699.88;;;6.43;79.48
7109;BME280;29079;41.930;25.558;2023-04-10T02:33:37;99691.53;;;6.49;74.91
7109;BME280;29079;41.930;25.558;2023-04-10T02:36:10;99685.78;;;6.30;74.88
7109;BME280;29079;41.930;25.558;2023-04-10T02:38:45;99687.16;;;6.35;74.98
7109;BME280;29079;41.930;25.558;2023-04-10T02:41:18;99689.59;;;6.51;77.58
7109;BME280;29079;41.930;25.558;2023-04-10T02:43:52;99695.28;;;5.79;76.32
7109;BME280;29079;41.930;25.558;2023-04-10T02:46:26;99690.50;;;5.44;78.29
7109;BME280;29079;41.930;25.558;2023-04-10T02:49:00;99690.09;;;5.37;78.62
7109;BME280;29079;41.930;25.558;2023-04-10T02:51:34;99692.38;;;5.29;78.29
7109;BME280;29079;41.930;25.558;2023-04-10T02:54:07;99690.56;;;5.57;77.05
7109;BME280;29079;41.930;25.558;2023-04-10T02:56:41;99686.97;;;5.31;78.73
7109;BME280;29079;41.930;25.558;2023-04-10T02:59:13;99698.44;;;5.17;78.82
7109;BME280;29079;41.930;25.558;2023-04-10T03:01:47;99690.03;;;5.25;78.24
7109;BME280;29079;41.930;25.558;2023-04-10T03:04:22;99695.22;;;5.26;78.37
7109;BME280;29079;41.930;25.558;2023-04-10T03:06:56;99688.75;;;5.03;78.46
7109;BME280;29079;41.930;25.558;2023-04-10T03:09:30;99695.75;;;5.04;78.97
7109;BME280;29079;41.930;25.558;2023-04-10T03:12:06;99683.53;;;5.16;78.76
7109;BME280;29079;41.930;25.558;2023-04-10T03:14:39;99683.97;;;5.50;77.74
7109;BME280;29079;41.930;25.558;2023-04-10T03:17:12;99689.69;;;5.44;79.75
7109;BME280;29079;41.930;25.558;2023-04-10T03:19:47;99691.03;;;6.04;78.77
7109;BME280;29079;41.930;25.558;2023-04-10T03:22:20;99693.72;;;5.77;77.59
7109;BME280;29079;41.930;25.558;2023-04-10T03:24:53;99696.53;;;5.73;75.79
7109;BME280;29079;41.930;25.558;2023-04-10T03:27:29;99688.91;;;5.41;77.45
7109;BME280;29079;41.930;25.558;2023-04-10T03:30:06;99695.84;;;5.30;77.94
7109;BME280;29079;41.930;25.558;2023-04-10T03:32:39;99690.31;;;5.47;77.11
7109;BME280;29079;41.930;25.558;2023-04-10T03:35:15;99685.94;;;5.33;80.17
7109;BME280;29079;41.930;25.558;2023-04-10T03:37:48;99690.78;;;5.54;77.18
7109;BME280;29079;41.930;25.558;2023-04-10T03:40:21;99686.84;;;5.87;77.79
7109;BME280;29079;41.930;25.558;2023-04-10T03:43:01;99683.09;;;5.64;76.73
7109;BME280;29079;41.930;25.558;2023-04-10T03:45:42;99681.69;;;5.58;77.36
7109;BME280;29079;41.930;25.558;2023-04-10T03:48:15;99690.88;;;5.52;76.71
7109;BME280;29079;41.930;25.558;2023-04-10T03:50:49;99690.81;;;5.67;78.08
7109;BME280;29079;41.930;25.558;2023-04-10T03:53:23;99690.03;;;5.92;76.35
7109;BME280;29079;41.930;25.558;2023-04-10T03:55:56;99697.22;;;5.50;77.05
7109;BME280;29079;41.930;25.558;2023-04-10T03:58:29;99697.97;;;5.92;76.19
7109;BME280;29079;41.930;25.558;2023-04-10T04:01:04;99694.81;;;5.60;77.25
7109;BME280;29079;41.930;25.558;2023-04-10T04:03:37;99695.19;;;5.81;76.48
7109;BME280;29079;41.930;25.558;2023-04-10T04:06:11;99698.50;;;5.84;75.42
7109;BME280;29079;41.930;25.558;2023-04-10T04:08:44;99697.72;;;5.69;76.09
7109;BME280;29079;41.930;25.558;2023-04-10T04:11:18;99705.84;;;5.39;78.12
7109;BME280;29079;41.930;25.558;2023-04-10T04:13:51;99703.00;;;5.00;77.30
7109;BME280;29079;41.930;25.558;2023-04-10T04:16:25;99703.00;;;5.00;77.64
7109;BME280;29079;41.930;25.558;2023-04-10T04:18:58;99694.53;;;4.95;79.55
7109;BME280;29079;41.930;25.558;2023-04-10T04:21:32;99707.06;;;4.77;78.00
7109;BME280;29079;41.930;25.558;2023-04-10T04:24:16;99709.06;;;4.74;78.68
7109;BME280;29079;41.930;25.558;2023-04-10T04:26:53;99706.16;;;4.78;79.31
7109;BME280;29079;41.930;25.558;2023-04-10T04:29:27;99705.97;;;5.37;78.58
7109;BME280;29079;41.930;25.558;2023-04-10T04:32:00;99700.16;;;4.89;78.36
7109;BME280;29079;41.930;25.558;2023-04-10T04:34:33;99708.50;;;4.68;79.32
7109;BME280;29079;41.930;25.558;2023-04-10T04:37:07;99708.50;;;4.83;78.62
7109;BME280;29079;41.930;25.558;2023-04-10T04:39:41;99712.66;;;4.87;78.48
7109;BME280;29079;41.930;25.558;2023-04-10T04:42:14;99718.53;;;4.63;78.70
7109;BME280;29079;41.930;25.558;2023-04-10T04:44:48;99714.38;;;4.88;78.03
7109;BME280;29079;41.930;25.558;2023-04-10T04:47:21;99714.25;;;4.90;78.64
7109;BME280;29079;41.930;25.558;2023-04-10T04:49:54;99716.63;;;4.80;78.53
7109;BME280;29079;41.930;25.558;2023-04-10T04:52:39;99717.38;;;4.67;79.28
7109;BME280;29079;41.930;25.558;2023-04-10T04:55:12;99718.50;;;4.78;79.89
7109;BME280;29079;41.930;25.558;2023-04-10T04:57:46;99720.78;;;4.98;78.45
7109;BME280;29079;41.930;25.558;2023-04-10T05:00:19;99717.84;;;5.03;79.52
7109;BME280;29079;41.930;25.558;2023-04-10T05:02:52;99720.06;;;5.23;78.30
7109;BME280;29079;41.930;25.558;2023-04-10T05:05:25;99729.41;;;5.29;78.08
7109;BME280;29079;41.930;25.558;2023-04-10T05:08:00;99735.81;;;5.39;77.51
7109;BME280;29079;41.930;25.558;2023-04-10T05:10:33;99731.19;;;5.70;77.22
7109;BME280;29079;41.930;25.558;2023-04-10T05:13:06;99724.78;;;5.87;76.26
7109;BME280;29079;41.930;25.558;2023-04-10T05:15:40;99734.28;;;6.04;77.51
7109;BME280;29079;41.930;25.558;2023-04-10T05:18:13;99724.47;;;6.84;73.19
7109;BME280;29079;41.930;25.558;2023-04-10T05:20:50;99735.28;;;6.16;74.09
7109;BME280;29079;41.930;25.558;2023-04-10T05:23:25;99734.50;;;6.01;74.81
7109;BME280;29079;41.930;25.558;2023-04-10T05:25:58;99741.25;;;6.45;74.34
7109;BME280;29079;41.930;25.558;2023-04-10T05:28:31;99740.91;;;6.50;73.79
7109;BME280;29079;41.930;25.558;2023-04-10T05:31:04;99734.31;;;6.30;74.32
7109;BME280;29079;41.930;25.558;2023-04-10T05:33:38;99737.09;;;6.41;74.56
7109;BME280;29079;41.930;25.558;2023-04-10T05:36:11;99744.22;;;6.67;74.16
7109;BME280;29079;41.930;25.558;2023-04-10T05:38:46;99734.97;;;6.72;72.39
7109;BME280;29079;41.930;25.558;2023-04-10T05:41:19;99740.59;;;6.93;73.63
7109;BME280;29079;41.930;25.558;2023-04-10T05:43:52;99738.38;;;7.00;73.20
7109;BME280;29079;41.930;25.558;2023-04-10T05:46:25;99729.94;;;7.19;72.12
7109;BME280;29079;41.930;25.558;2023-04-10T05:48:58;99733.13;;;7.11;72.21
7109;BME280;29079;41.930;25.558;2023-04-10T05:51:32;99735.88;;;7.23;72.76
7109;BME280;29079;41.930;25.558;2023-04-10T05:54:07;99730.69;;;7.58;71.05
7109;BME280;29079;41.930;25.558;2023-04-10T05:56:40;99731.78;;;7.43;71.96
7109;BME280;29079;41.930;25.558;2023-04-10T05:59:13;99733.16;;;7.48;72.95
7109;BME280;29079;41.930;25.558;2023-04-10T06:01:46;99730.91;;;7.55;71.90
7109;BME280;29079;41.930;25.558;2023-04-10T06:04:19;99733.38;;;7.70;71.48
7109;BME280;29079;41.930;25.558;2023-04-10T06:06:53;99727.16;;;7.82;71.49
7109;BME280;29079;41.930;25.558;2023-04-10T06:09:28;99721.66;;;8.21;70.49
7109;BME280;29079;41.930;25.558;2023-04-10T06:12:02;99727.09;;;7.95;71.28
7109;BME280;29079;41.930;25.558;2023-04-10T06:14:37;99720.53;;;8.12;73.70
7109;BME280;29079;41.930;25.558;2023-04-10T06:17:09;99723.28;;;8.10;71.14
7109;BME280;29079;41.930;25.558;2023-04-10T06:19:43;99718.06;;;8.09;71.99
7109;BME280;29079;41.930;25.558;2023-04-10T06:22:17;99720.94;;;8.30;70.25
7109;BME280;29079;41.930;25.558;2023-04-10T06:24:53;99720.84;;;8.43;70.76
7109;BME280;29079;41.930;25.558;2023-04-10T06:27:27;99718.31;;;8.41;70.12
7109;BME280;29079;41.930;25.558;2023-04-10T06:30:00;99722.72;;;8.18;67.63
7109;BME280;29079;41.930;25.558;2023-04-10T06:32:34;99725.63;;;8.26;67.06
7109;BME280;29079;41.930;25.558;2023-04-10T06:35:07;99721.31;;;8.36;68.07
7109;BME280;29079;41.930;25.558;2023-04-10T06:37:41;99722.56;;;8.44;67.19
7109;BME280;29079;41.930;25.558;2023-04-10T06:40:15;99727.88;;;8.44;66.16
7109;BME280;29079;41.930;25.558;2023-04-10T06:42:48;99717.13;;;8.57;68.23
7109;BME280;29079;41.930;25.558;2023-04-10T06:45:21;99729.47;;;8.58;65.29
7109;BME280;29079;41.930;25.558;2023-04-10T06:47:54;99725.75;;;8.71;65.29
7109;BME280;29079;41.930;25.558;2023-04-10T06:50:28;99732.41;;;8.88;64.57
7109;BME280;29079;41.930;25.558;2023-04-10T06:53:04;99732.41;;;9.34;64.27
7109;BME280;29079;41.930;25.558;2023-04-10T06:55:38;99731.16;;;9.38;63.81
7109;BME280;29079;41.930;25.558;2023-04-10T06:58:11;99731.91;;;9.17;64.43
7109;BME280;29079;41.930;25.558;2023-04-10T07:00:44;99735.16;;;9.32;64.09
7109;BME280;29079;41.930;25.558;2023-04-10T07:03:18;99731.19;;;9.27;64.17
7109;BME280;29079;41.930;25.558;2023-04-10T07:05:51;99736.88;;;9.33;64.27
7109;BME280;29079;41.930;25.558;2023-04-10T07:08:24;99750.06;;;9.35;63.49
7109;BME280;29079;41.930;25.558;2023-04-10T07:10:59;99751.25;;;9.42;64.18
7109;BME280;29079;41.930;25.558;2023-04-10T07:13:32;99748.97;;;9.37;63.24
7109;BME280;29079;41.930;25.558;2023-04-10T07:16:06;99751.38;;;9.40;65.44
7109;BME280;29079;41.930;25.558;2023-04-10T07:18:40;99747.81;;;9.63;67.33
7109;BME280;29079;41.930;25.558;2023-04-10T07:21:15;99745.75;;;9.66;66.38
7109;BME280;29079;41.930;25.558;2023-04-10T07:23:48;99762.84;;;9.52;65.01
7109;BME280;29079;41.930;25.558;2023-04-10T07:26:23;99751.75;;;9.36;65.15
7109;BME280;29079;41.930;25.558;2023-04-10T07:28:57;99757.59;;;9.07;66.83
7109;BME280;29079;41.930;25.558;2023-04-10T07:31:30;99758.41;;;9.07;68.01
7109;BME280;29079;41.930;25.558;2023-04-10T07:34:04;99752.84;;;9.22;69.22
7109;BME280;29079;41.930;25.558;2023-04-10T07:36:37;99749.25;;;8.89;68.46
7109;BME280;29079;41.930;25.558;2023-04-10T07:39:10;99747.16;;;8.93;69.21
7109;BME280;29079;41.930;25.558;2023-04-10T07:41:44;99745.59;;;9.01;69.60
7109;BME280;29079;41.930;25.558;2023-04-10T07:44:17;99739.19;;;9.04;69.79
7109;BME280;29079;41.930;25.558;2023-04-10T07:46:51;99742.94;;;9.13;69.88
7109;BME280;29079;41.930;25.558;2023-04-10T07:49:24;99737.03;;;8.98;68.55
7109;BME280;29079;41.930;25.558;2023-04-10T07:52:07;99738.31;;;9.15;69.15
7109;BME280;29079;41.930;25.558;2023-04-10T07:54:41;99733.88;;;9.15;68.45
7109;BME280;29079;41.930;25.558;2023-04-10T07:57:15;99731.78;;;9.30;69.19
7109;BME280;29079;41.930;25.558;2023-04-10T07:59:49;99733.31;;;9.99;69.07
7109;BME280;29079;41.930;25.558;2023-04-10T08:02:22;99738.03;;;9.96;68.67
7109;BME280;29079;41.930;25.558;2023-04-10T08:05:06;99735.75;;;9.47;68.74
7109;BME280;29079;41.930;25.558;2023-04-10T08:07:39;99741.59;;;9.30;69.50
7109;BME280;29079;41.930;25.558;2023-04-10T08:10:12;99740.38;;;9.34;69.47
7109;BME280;29079;41.930;25.558;2023-04-10T08:12:48;99740.00;;;9.38;69.77
7109;BME280;29079;41.930;25.558;2023-04-10T08:15:21;99745.09;;;9.30;70.06
7109;BME280;29079;41.930;25.558;2023-04-10T08:17:54;99748.38;;;9.22;70.68
7109;BME280;29079;41.930;25.558;2023-04-10T08:20:27;99743.91;;;9.12;71.15
7109;BME280;29079;41.930;25.558;2023-04-10T08:23:00;99747.91;;;9.17;74.25
7109;BME280;29079;41.930;25.558;2023-04-10T08:25:51;99735.91;;;9.12;73.54
7109;BME280;29079;41.930;25.558;2023-04-10T08:28:25;99745.59;;;9.13;75.76
7109;BME280;29079;41.930;25.558;2023-04-10T08:30:59;99754.09;;;9.18;76.08
7109;BME280;29079;41.930;25.558;2023-04-10T08:33:32;99750.56;;;9.17;77.68
7109;BME280;29079;41.930;25.558;2023-04-10T08:36:05;99747.31;;;9.02;76.39
7109;BME280;29079;41.930;25.558;2023-04-10T08:38:38;99748.63;;;8.85;77.98
7109;BME280;29079;41.930;25.558;2023-04-10T08:41:12;99745.59;;;8.90;80.05
7109;BME280;29079;41.930;25.558;2023-04-10T08:43:47;99744.50;;;8.81;78.78
7109;BME280;29079;41.930;25.558;2023-04-10T08:46:22;99743.66;;;8.81;80.27
7109;BME280;29079;41.930;25.558;2023-04-10T08:48:57;99745.25;;;8.83;79.01
7109;BME280;29079;41.930;25.558;2023-04-10T08:51:35;99738.94;;;8.73;80.06
7109;BME280;29079;41.930;25.558;2023-04-10T08:54:09;99735.53;;;8.71;79.80
7109;BME280;29079;41.930;25.558;2023-04-10T08:56:45;99728.19;;;8.86;81.18
7109;BME280;29079;41.930;25.558;2023-04-10T08:59:23;99731.44;;;9.01;81.44
7109;BME280;29079;41.930;25.558;2023-04-10T09:01:56;99725.75;;;8.94;80.23
7109;BME280;29079;41.930;25.558;2023-04-10T09:04:30;99725.75;;;9.05;81.76
7109;BME280;29079;41.930;25.558;2023-04-10T09:07:04;99719.59;;;9.05;79.50
7109;BME280;29079;41.930;25.558;2023-04-10T09:09:37;99713.19;;;8.96;80.09
7109;BME280;29079;41.930;25.558;2023-04-10T09:12:12;99718.34;;;9.20;82.50
7109;BME280;29079;41.930;25.558;2023-04-10T09:14:48;99713.31;;;8.95;79.64
7109;BME280;29079;41.930;25.558;2023-04-10T09:17:24;99715.47;;;9.01;81.26
7109;BME280;29079;41.930;25.558;2023-04-10T09:19:57;99706.53;;;9.02;82.58
7109;BME280;29079;41.930;25.558;2023-04-10T09:22:30;99713.53;;;8.92;80.29
7109;BME280;29079;41.930;25.558;2023-04-10T09:25:04;99712.69;;;8.57;80.06
7109;BME280;29079;41.930;25.558;2023-04-10T09:27:38;99715.00;;;8.84;81.63
7109;BME280;29079;41.930;25.558;2023-04-10T09:30:14;99709.19;;;8.79;81.15
7109;BME280;29079;41.930;25.558;2023-04-10T09:35:52;99703.13;;;9.11;82.13
7109;BME280;29079;41.930;25.558;2023-04-10T09:38:25;99705.41;;;9.16;80.99
7109;BME280;29079;41.930;25.558;2023-04-10T09:41:05;99696.97;;;8.99;82.70
7109;BME280;29079;41.930;25.558;2023-04-10T09:43:39;99696.59;;;9.15;83.08
7109;BME280;29079;41.930;25.558;2023-04-10T09:46:18;99693.44;;;8.99;81.81
7109;BME280;29079;41.930;25.558;2023-04-10T09:48:57;99687.00;;;9.24;83.23
7109;BME280;29079;41.930;25.558;2023-04-10T09:51:32;99683.28;;;9.15;82.37
7109;BME280;29079;41.930;25.558;2023-04-10T09:54:06;99679.13;;;9.34;81.84
7109;BME280;29079;41.930;25.558;2023-04-10T09:56:39;99671.16;;;9.22;81.77
7109;BME280;29079;41.930;25.558;2023-04-10T09:59:13;99672.56;;;9.38;82.52
7109;BME280;29079;41.930;25.558;2023-04-10T10:01:49;99673.31;;;9.40;81.40
7109;BME280;29079;41.930;25.558;2023-04-10T10:04:23;99678.53;;;9.63;81.23
7109;BME280;29079;41.930;25.558;2023-04-10T10:06:56;99671.03;;;9.35;82.21
7109;BME280;29079;41.930;25.558;2023-04-10T10:09:37;99667.34;;;9.36;80.93
7109;BME280;29079;41.930;25.558;2023-04-10T10:12:14;99668.69;;;9.42;81.67
7109;BME280;29079;41.930;25.558;2023-04-10T10:14:50;99669.56;;;9.31;81.27
7109;BME280;29079;41.930;25.558;2023-04-10T10:17:28;99669.63;;;9.52;80.13
7109;BME280;29079;41.930;25.558;2023-04-10T10:20:06;99671.53;;;9.62;80.60
7109;BME280;29079;41.930;25.558;2023-04-10T10:22:40;99672.47;;;9.72;79.99
7109;BME280;29079;41.930;25.558;2023-04-10T10:25:14;99669.84;;;9.61;80.34
7109;BME280;29079;41.930;25.558;2023-04-10T10:27:48;99675.56;;;9.77;80.59
7109;BME280;29079;41.930;25.558;2023-04-10T10:30:23;99668.75;;;9.63;80.82
7109;BME280;29079;41.930;25.558;2023-04-10T10:33:04;99667.75;;;9.64;80.85
7109;BME280;29079;41.930;25.558;2023-04-10T10:35:37;99664.41;;;9.51;80.33
7109;BME280;29079;41.930;25.558;2023-04-10T10:38:11;99661.31;;;9.67;79.50
7109;BME280;29079;41.930;25.558;2023-04-10T10:40:47;99656.78;;;9.79;80.56
7109;BME280;29079;41.930;25.558;2023-04-10T10:43:24;99642.75;;;9.76;79.75
7109;BME280;29079;41.930;25.558;2023-04-10T10:46:00;99645.63;;;9.52;79.57
7109;BME280;29079;41.930;25.558;2023-04-10T10:48:36;99644.25;;;9.69;80.34
7109;BME280;29079;41.930;25.558;2023-04-10T10:51:09;99636.34;;;9.79;79.49
7109;BME280;29079;41.930;25.558;2023-04-10T10:53:43;99637.38;;;9.88;78.92
7109;BME280;29079;41.930;25.558;2023-04-10T10:56:32;99638.09;;;10.11;78.77
7109;BME280;29079;41.930;25.558;2023-04-10T10:59:06;99640.13;;;9.98;76.79
7109;BME280;29079;41.930;25.558;2023-04-10T11:01:39;99632.31;;;10.06;75.65
7109;BME280;29079;41.930;25.558;2023-04-10T11:04:43;99630.50;;;10.06;75.03
7109;BME280;29079;41.930;25.558;2023-04-10T11:07:17;99628.19;;;10.23;75.83
7109;BME280;29079;41.930;25.558;2023-04-10T11:09:51;99625.06;;;10.18;74.13
7109;BME280;29079;41.930;25.558;2023-04-10T11:12:26;99624.25;;;10.17;73.85
7109;BME280;29079;41.930;25.558;2023-04-10T11:15:00;99621.00;;;10.35;74.65
7109;BME280;29079;41.930;25.558;2023-04-10T11:17:50;99619.22;;;10.45;74.10
7109;BME280;29079;41.930;25.558;2023-04-10T11:20:26;99619.34;;;10.43;73.42
7109;BME280;29079;41.930;25.558;2023-04-10T11:23:06;99618.63;;;10.20;73.35
7109;BME280;29079;41.930;25.558;2023-04-10T11:25:49;99611.22;;;10.45;73.92
7109;BME280;29079;41.930;25.558;2023-04-10T11:28:33;99611.25;;;10.55;74.63
7109;BME280;29079;41.930;25.558;2023-04-10T11:31:12;99615.63;;;10.56;74.21
7109;BME280;29079;41.930;25.558;2023-04-10T11:33:46;99607.88;;;10.53;73.62
7109;BME280;29079;41.930;25.558;2023-04-10T11:36:22;99609.69;;;10.52;73.26
7109;BME280;29079;41.930;25.558;2023-04-10T11:38:56;99609.63;;;10.63;74.15
7109;BME280;29079;41.930;25.558;2023-04-10T11:41:30;99598.06;;;10.53;75.34
7109;BME280;29079;41.930;25.558;2023-04-10T11:44:05;99599.56;;;10.46;76.29
7109;BME280;29079;41.930;25.558;2023-04-10T11:46:38;99605.03;;;10.44;76.16
7109;BME280;29079;41.930;25.558;2023-04-10T11:49:16;99592.00;;;10.51;75.05
7109;BME280;29079;41.930;25.558;2023-04-10T11:51:51;99596.72;;;10.38;74.60
7109;BME280;29079;41.930;25.558;2023-04-10T11:54:26;99601.28;;;10.47;75.25
7109;BME280;29079;41.930;25.558;2023-04-10T11:57:00;99596.34;;;10.52;74.38
7109;BME280;29079;41.930;25.558;2023-04-10T11:59:34;99593.28;;;10.57;74.77
7109;BME280;29079;41.930;25.558;2023-04-10T12:02:08;99591.22;;;10.70;74.75
7109;BME280;29079;41.930;25.558;2023-04-10T12:04:42;99592.72;;;10.32;76.65
7109;BME280;29079;41.930;25.558;2023-04-10T12:07:17;99587.00;;;10.37;77.30
7109;BME280;29079;41.930;25.558;2023-04-10T12:09:54;99580.72;;;10.38;76.80
7109;BME280;29079;41.930;25.558;2023-04-10T12:12:33;99580.56;;;10.39;75.67
7109;BME280;29079;41.930;25.558;2023-04-10T12:15:25;99585.25;;;10.47;76.40
7109;BME280;29079;41.930;25.558;2023-04-10T12:17:59;99573.84;;;10.45;75.89
7109;BME280;29079;41.930;25.558;2023-04-10T12:20:33;99570.34;;;10.44;78.68
7109;BME280;29079;41.930;25.558;2023-04-10T12:23:07;99570.81;;;10.28;81.36
7109;BME280;29079;41.930;25.558;2023-04-10T12:25:41;99558.59;;;10.26;80.98
7109;BME280;29079;41.930;25.558;2023-04-10T12:28:17;99562.09;;;10.26;80.90
7109;BME280;29079;41.930;25.558;2023-04-10T12:30:51;99553.25;;;10.26;81.15
7109;BME280;29079;41.930;25.558;2023-04-10T12:33:24;99547.91;;;10.26;81.81
7109;BME280;29079;41.930;25.558;2023-04-10T12:35:57;99555.72;;;10.18;81.06
7109;BME280;29079;41.930;25.558;2023-04-10T12:38:36;99543.41;;;10.26;81.26
7109;BME280;29079;41.930;25.558;2023-04-10T12:41:10;99551.41;;;10.26;81.57
7109;BME280;29079;41.930;25.558;2023-04-10T12:43:43;99545.81;;;10.29;80.68
7109;BME280;29079;41.930;25.558;2023-04-10T12:46:22;99539.78;;;10.27;79.90
7109;BME280;29079;41.930;25.558;2023-04-10T12:49:07;99537.38;;;10.24;78.48
7109;BME280;29079;41.930;25.558;2023-04-10T12:51:40;99537.81;;;10.29;77.89
7109;BME280;29079;41.930;25.558;2023-04-10T12:54:29;99538.94;;;10.27;78.34
7109;BME280;29079;41.930;25.558;2023-04-10T12:57:03;99535.75;;;10.33;77.17
7109;BME280;29079;41.930;25.558;2023-04-10T12:59:36;99530.81;;;10.28;75.93
7109;BME280;29079;41.930;25.558;2023-04-10T13:02:09;99531.66;;;10.29;76.19
7109;BME280;29079;41.930;25.558;2023-04-10T13:04:42;99524.69;;;10.38;75.98
7109;BME280;29079;41.930;25.558;2023-04-10T13:07:15;99524.81;;;10.36;77.14
7109;BME280;29079;41.930;25.558;2023-04-10T13:09:50;99526.66;;;10.45;76.49
7109;BME280;29079;41.930;25.558;2023-04-10T13:12:34;99525.56;;;10.48;76.79
7109;BME280;29079;41.930;25.558;2023-04-10T13:15:09;99518.78;;;10.34;77.09
7109;BME280;29079;41.930;25.558;2023-04-10T13:17:43;99519.34;;;10.38;79.26
7109;BME280;29079;41.930;25.558;2023-04-10T13:20:16;99520.78;;;10.42;78.82
7109;BME280;29079;41.930;25.558;2023-04-10T13:22:50;99520.06;;;10.40;79.03
7109;BME280;29079;41.930;25.558;2023-04-10T13:25:24;99523.72;;;10.39;79.34
7109;BME280;29079;41.930;25.558;2023-04-10T13:27:58;99518.66;;;10.45;79.53
7109;BME280;29079;41.930;25.558;2023-04-10T13:30:31;99528.78;;;10.42;80.37
7109;BME280;29079;41.930;25.558;2023-04-10T13:33:05;99523.31;;;10.43;79.89
7109;BME280;29079;41.930;25.558;2023-04-10T13:35:38;99524.56;;;10.39;79.77
7109;BME280;29079;41.930;25.558;2023-04-10T13:38:11;99535.00;;;10.21;79.40
7109;BME280;29079;41.930;25.558;2023-04-10T13:40:46;99544.84;;;10.31;82.31
7109;BME280;29079;41.930;25.558;2023-04-10T13:43:19;99545.59;;;10.11;85.32
7109;BME280;29079;41.930;25.558;2023-04-10T13:45:52;99549.56;;;9.86;89.66
7109;BME280;29079;41.930;25.558;2023-04-10T13:48:25;99543.50;;;9.84;91.81
7109;BME280;29079;41.930;25.558;2023-04-10T13:51:10;99542.59;;;9.74;89.88
7109;BME280;29079;41.930;25.558;2023-04-10T13:53:43;99547.84;;;9.64;92.87
7109;BME280;29079;41.930;25.558;2023-04-10T13:56:18;99533.28;;;9.68;93.76